sensor_id;sensor_type;location;lat;lon;timestamp;pressure;altitude;pressure_sealevel;temperature;humidity
10462;BME280;5278;42.656;23.374;2023-03-16T00:01:27;93778.97;;;4.87;96.88
10462;BME280;5278;42.656;23.374;2023-03-16T00:03:54;93776.72;;;4.84;96.82
10462;BME280;5278;42.656;23.374;2023-03-16T00:06:21;93781.88;;;4.92;97.21
10462;BME280;5278;42.656;23.374;2023-03-16T00:08:48;93786.69;;;4.87;96.57
10462;BME280;5278;42.656;23.374;2023-03-16T00:11:15;93773.16;;;4.68;96.92
10462;BME280;5278;42.656;23.374;2023-03-16T00:13:42;93780.88;;;4.68;96.16
10462;BME280;5278;42.656;23.374;2023-03-16T00:16:09;93780.06;;;4.60;97.00
10462;BME280;5278;42.656;23.374;2023-03-16T00:18:42;93795.66;;;4.50;97.59
10462;BME280;5278;42.656;23.374;2023-03-16T00:21:12;93798.56;;;4.47;98.00
10462;BME280;5278;42.656;23.374;2023-03-16T00:23:39;93797.59;;;4.48;97.91
10462;BME280;5278;42.656;23.374;2023-03-16T00:26:07;93805.66;;;4.53;98.71
10462;BME280;5278;42.656;23.374;2023-03-16T00:28:35;93788.56;;;4.44;98.49
10462;BME280;5278;42.656;23.374;2023-03-16T00:31:04;93793.75;;;4.52;98.44
10462;BME280;5278;42.656;23.374;2023-03-16T00:33:32;93755.97;;;4.37;98.23
10462;BME280;5278;42.656;23.374;2023-03-16T00:36:01;93800.03;;;4.58;97.51
10462;BME280;5278;42.656;23.374;2023-03-16T00:38:28;93802.09;;;4.54;98.12
10462;BME280;5278;42.656;23.374;2023-03-16T00:40:58;93808.38;;;4.52;98.04
10462;BME280;5278;42.656;23.374;2023-03-16T00:43:28;93802.41;;;4.51;97.65
10462;BME280;5278;42.656;23.374;2023-03-16T00:46:05;93806.09;;;4.41;97.95
10462;BME280;5278;42.656;23.374;2023-03-16T00:48:35;93809.47;;;4.33;98.77
10462;BME280;5278;42.656;23.374;2023-03-16T00:51:05;93812.19;;;4.31;99.25
10462;BME280;5278;42.656;23.374;2023-03-16T00:53:33;93805.91;;;4.26;99.58
10462;BME280;5278;42.656;23.374;2023-03-16T00:56:01;93800.75;;;4.18;99.80
10462;BME280;5278;42.656;23.374;2023-03-16T00:58:30;93796.34;;;4.02;100.00
10462;BME280;5278;42.656;23.374;2023-03-16T01:01:00;93819.22;;;4.21;100.00
10462;BME280;5278;42.656;23.374;2023-03-16T01:03:28;93808.78;;;4.23;100.00
10462;BME280;5278;42.656;23.374;2023-03-16T01:05:55;93811.19;;;4.24;100.00
10462;BME280;5278;42.656;23.374;2023-03-16T01:08:26;93811.19;;;4.24;100.00
10462;BME280;5278;42.656;23.374;2023-03-16T01:10:53;93822.41;;;4.23;100.00
10462;BME280;5278;42.656;23.374;2023-03-16T01:13:21;93812.94;;;4.24;99.55
10462;BME280;5278;42.656;23.374;2023-03-16T01:15:49;93817.59;;;4.20;99.45
10462;BME280;5278;42.656;23.374;2023-03-16T01:18:16;93809.56;;;4.23;99.95
10462;BME280;5278;42.656;23.374;2023-03-16T01:20:43;93811.19;;;4.24;99.45
10462;BME280;5278;42.656;23.374;2023-03-16T01:23:15;93802.66;;;4.16;99.57
10462;BME280;5278;42.656;23.374;2023-03-16T01:25:43;93812.94;;;4.16;98.79
10462;BME280;5278;42.656;23.374;2023-03-16T01:28:17;93821.47;;;4.24;99.62
10462;BME280;5278;42.656;23.374;2023-03-16T01:30:48;93812.78;;;4.17;99.79
10462;BME280;5278;42.656;23.374;2023-03-16T01:33:18;93824.88;;;4.33;100.00
10462;BME280;5278;42.656;23.374;2023-03-16T01:35:51;93824.75;;;4.43;99.75
10462;BME280;5278;42.656;23.374;2023-03-16T01:38:18;93820.22;;;4.37;99.55
10462;BME280;5278;42.656;23.374;2023-03-16T01:40:47;93826.03;;;4.47;99.58
10462;BME280;5278;42.656;23.374;2023-03-16T01:43:17;93825.41;;;4.53;99.50
10462;BME280;5278;42.656;23.374;2023-03-16T01:46:09;93831.50;;;4.52;99.01
10462;BME280;5278;42.656;23.374;2023-03-16T01:48:46;93816.84;;;4.36;98.75
10462;BME280;5278;42.656;23.374;2023-03-16T01:51:18;93821.78;;;4.29;98.85
10462;BME280;5278;42.656;23.374;2023-03-16T01:53:48;93841.41;;;4.30;99.15
10462;BME280;5278;42.656;23.374;2023-03-16T01:56:22;93832.75;;;4.31;99.18
10462;BME280;5278;42.656;23.374;2023-03-16T01:58:52;93841.22;;;4.24;99.48
10462;BME280;5278;42.656;23.374;2023-03-16T02:01:24;93841.34;;;4.14;98.91
10462;BME280;5278;42.656;23.374;2023-03-16T02:03:55;93834.63;;;4.13;99.34
10462;BME280;5278;42.656;23.374;2023-03-16T02:06:23;93856.41;;;4.09;98.14
10462;BME280;5278;42.656;23.374;2023-03-16T02:08:50;93857.69;;;4.05;98.84
10462;BME280;5278;42.656;23.374;2023-03-16T02:11:21;93845.63;;;3.98;98.58
10462;BME280;5278;42.656;23.374;2023-03-16T02:13:49;93860.88;;;3.99;99.48
10462;BME280;5278;42.656;23.374;2023-03-16T02:16:19;93860.88;;;3.99;98.82
10462;BME280;5278;42.656;23.374;2023-03-16T02:18:47;93857.63;;;3.89;99.14
10462;BME280;5278;42.656;23.374;2023-03-16T02:21:20;93869.22;;;3.93;100.00
10462;BME280;5278;42.656;23.374;2023-03-16T02:23:52;93872.13;;;3.98;99.97
10462;BME280;5278;42.656;23.374;2023-03-16T02:26:27;93872.28;;;3.97;99.66
10462;BME280;5278;42.656;23.374;2023-03-16T02:29:09;93867.94;;;3.97;99.97
10462;BME280;5278;42.656;23.374;2023-03-16T02:31:40;93874.25;;;4.03;99.91
10462;BME280;5278;42.656;23.374;2023-03-16T02:34:07;93875.19;;;4.02;100.00
10462;BME280;5278;42.656;23.374;2023-03-16T02:36:35;93879.53;;;4.01;100.00
10462;BME280;5278;42.656;23.374;2023-03-16T02:39:04;93878.56;;;4.02;99.91
10462;BME280;5278;42.656;23.374;2023-03-16T02:41:31;93874.34;;;3.93;100.00
10462;BME280;5278;42.656;23.374;2023-03-16T02:44:02;93841.94;;;3.66;100.00
10462;BME280;5278;42.656;23.374;2023-03-16T02:46:30;93864.97;;;3.84;99.78
10462;BME280;5278;42.656;23.374;2023-03-16T02:49:05;93887.81;;;3.87;100.00
10462;BME280;5278;42.656;23.374;2023-03-16T02:51:33;93893.22;;;3.84;100.00
10462;BME280;5278;42.656;23.374;2023-03-16T02:54:00;93877.78;;;3.76;100.00
10462;BME280;5278;42.656;23.374;2023-03-16T02:56:28;93894.31;;;3.73;100.00
10462;BME280;5278;42.656;23.374;2023-03-16T02:58:55;93897.66;;;3.74;100.00
10462;BME280;5278;42.656;23.374;2023-03-16T03:01:23;93902.50;;;3.77;100.00
10462;BME280;5278;42.656;23.374;2023-03-16T03:03:50;93903.31;;;3.77;100.00
10462;BME280;5278;42.656;23.374;2023-03-16T03:06:19;93906.03;;;3.76;100.00
10462;BME280;5278;42.656;23.374;2023-03-16T03:08:46;93901.22;;;3.73;100.00
10462;BME280;5278;42.656;23.374;2023-03-16T03:11:13;93901.03;;;3.74;100.00
10462;BME280;5278;42.656;23.374;2023-03-16T03:13:42;93915.03;;;3.80;100.00
10462;BME280;5278;42.656;23.374;2023-03-16T03:16:09;93906.69;;;3.78;100.00
10462;BME280;5278;42.656;23.374;2023-03-16T03:18:37;93908.28;;;3.79;100.00
10462;BME280;5278;42.656;23.374;2023-03-16T03:21:04;93911.63;;;3.71;100.00
10462;BME280;5278;42.656;23.374;2023-03-16T03:23:33;93918.53;;;3.71;100.00
10462;BME280;5278;42.656;23.374;2023-03-16T03:26:01;93907.94;;;3.74;100.00
10462;BME280;5278;42.656;23.374;2023-03-16T03:28:29;93910.16;;;3.69;100.00
10462;BME280;5278;42.656;23.374;2023-03-16T03:30:59;93905.88;;;3.77;100.00
10462;BME280;5278;42.656;23.374;2023-03-16T03:33:27;93927.25;;;3.78;100.00
10462;BME280;5278;42.656;23.374;2023-03-16T03:35:56;93927.47;;;3.67;100.00
10462;BME280;5278;42.656;23.374;2023-03-16T03:38:24;93908.44;;;3.52;100.00
10462;BME280;5278;42.656;23.374;2023-03-16T03:40:53;93916.94;;;3.52;100.00
10462;BME280;5278;42.656;23.374;2023-03-16T03:43:24;93925.69;;;3.41;100.00
10462;BME280;5278;42.656;23.374;2023-03-16T03:45:54;93944.91;;;3.37;100.00
10462;BME280;5278;42.656;23.374;2023-03-16T03:48:22;93940.59;;;3.38;100.00
10462;BME280;5278;42.656;23.374;2023-03-16T03:50:49;93942.03;;;3.40;100.00
10462;BME280;5278;42.656;23.374;2023-03-16T03:53:16;93945.56;;;3.39;100.00
10462;BME280;5278;42.656;23.374;2023-03-16T03:55:43;93953.56;;;3.36;100.00
10462;BME280;5278;42.656;23.374;2023-03-16T03:58:11;93947.63;;;3.36;100.00
10462;BME280;5278;42.656;23.374;2023-03-16T04:00:39;93882.63;;;2.92;100.00
10462;BME280;5278;42.656;23.374;2023-03-16T04:03:06;93963.03;;;3.36;100.00
10462;BME280;5278;42.656;23.374;2023-03-16T04:05:32;93942.44;;;3.28;100.00
10462;BME280;5278;42.656;23.374;2023-03-16T04:07:59;93961.31;;;3.44;100.00
10462;BME280;5278;42.656;23.374;2023-03-16T04:10:28;93976.72;;;3.44;100.00
10462;BME280;5278;42.656;23.374;2023-03-16T04:12:56;93957.66;;;3.47;100.00
10462;BME280;5278;42.656;23.374;2023-03-16T04:15:27;93967.72;;;3.58;100.00
10462;BME280;5278;42.656;23.374;2023-03-16T04:17:54;93945.09;;;3.44;100.00
10462;BME280;5278;42.656;23.374;2023-03-16T04:20:21;93971.94;;;3.50;100.00
10462;BME280;5278;42.656;23.374;2023-03-16T04:22:48;93966.09;;;3.57;100.00
10462;BME280;5278;42.656;23.374;2023-03-16T04:25:23;93968.78;;;3.56;100.00
10462;BME280;5278;42.656;23.374;2023-03-16T04:27:52;93974.25;;;3.53;100.00
10462;BME280;5278;42.656;23.374;2023-03-16T04:30:19;93974.59;;;3.40;100.00
10462;BME280;5278;42.656;23.374;2023-03-16T04:32:49;93974.78;;;3.38;100.00
10462;BME280;5278;42.656;23.374;2023-03-16T04:35:17;93975.19;;;3.34;100.00
10462;BME280;5278;42.656;23.374;2023-03-16T04:37:45;93972.13;;;3.30;100.00
10462;BME280;5278;42.656;23.374;2023-03-16T04:40:12;93992.88;;;3.37;100.00
10462;BME280;5278;42.656;23.374;2023-03-16T04:42:45;93954.81;;;3.15;100.00
10462;BME280;5278;42.656;23.374;2023-03-16T04:45:13;93993.75;;;3.45;100.00
10462;BME280;5278;42.656;23.374;2023-03-16T04:47:40;93985.97;;;3.37;100.00
10462;BME280;5278;42.656;23.374;2023-03-16T04:50:10;93992.19;;;3.35;100.00
10462;BME280;5278;42.656;23.374;2023-03-16T04:52:37;94021.19;;;3.27;100.00
10462;BME280;5278;42.656;23.374;2023-03-16T04:55:05;94017.94;;;3.25;100.00
10462;BME280;5278;42.656;23.374;2023-03-16T04:57:32;94011.19;;;3.24;100.00
10462;BME280;5278;42.656;23.374;2023-03-16T04:59:59;94038.56;;;3.33;100.00
10462;BME280;5278;42.656;23.374;2023-03-16T05:02:26;93915.94;;;2.56;100.00
10462;BME280;5278;42.656;23.374;2023-03-16T05:04:53;94021.44;;;3.24;100.00
10462;BME280;5278;42.656;23.374;2023-03-16T05:07:22;94022.25;;;3.25;100.00
10462;BME280;5278;42.656;23.374;2023-03-16T05:09:49;94019.41;;;3.28;100.00
10462;BME280;5278;42.656;23.374;2023-03-16T05:12:16;94035.75;;;3.27;100.00
10462;BME280;5278;42.656;23.374;2023-03-16T05:14:44;94028.72;;;3.29;100.00
10462;BME280;5278;42.656;23.374;2023-03-16T05:17:11;94030.31;;;3.30;100.00
10462;BME280;5278;42.656;23.374;2023-03-16T05:19:39;94045.44;;;3.33;100.00
10462;BME280;5278;42.656;23.374;2023-03-16T05:22:06;94038.19;;;3.28;100.00
10462;BME280;5278;42.656;23.374;2023-03-16T05:24:36;94036.84;;;3.24;100.00
10462;BME280;5278;42.656;23.374;2023-03-16T05:27:03;94042.44;;;3.37;100.00
10462;BME280;5278;42.656;23.374;2023-03-16T05:29:30;94045.00;;;3.37;100.00
10462;BME280;5278;42.656;23.374;2023-03-16T05:31:57;94058.41;;;3.31;98.94
10462;BME280;5278;42.656;23.374;2023-03-16T05:34:25;94056.53;;;3.33;98.46
10462;BME280;5278;42.656;23.374;2023-03-16T05:36:52;94053.00;;;3.34;98.92
10462;BME280;5278;42.656;23.374;2023-03-16T05:39:20;94058.88;;;3.44;98.56
10462;BME280;5278;42.656;23.374;2023-03-16T05:41:49;94059.97;;;3.42;98.66
10462;BME280;5278;42.656;23.374;2023-03-16T05:44:16;94035.75;;;3.27;99.51
10462;BME280;5278;42.656;23.374;2023-03-16T05:46:43;94066.56;;;3.44;98.96
10462;BME280;5278;42.656;23.374;2023-03-16T05:49:11;94070.47;;;3.49;99.67
10462;BME280;5278;42.656;23.374;2023-03-16T05:51:38;94056.22;;;3.54;99.83
10462;BME280;5278;42.656;23.374;2023-03-16T05:54:06;94074.88;;;3.56;99.28
10462;BME280;5278;42.656;23.374;2023-03-16T05:56:33;94073.34;;;3.63;99.11
10462;BME280;5278;42.656;23.374;2023-03-16T05:59:02;94080.69;;;3.58;98.22
10462;BME280;5278;42.656;23.374;2023-03-16T06:01:29;94082.72;;;3.55;98.47
10462;BME280;5278;42.656;23.374;2023-03-16T06:04:00;94072.25;;;3.48;99.32
10462;BME280;5278;42.656;23.374;2023-03-16T06:06:27;94083.38;;;3.57;100.00
10462;BME280;5278;42.656;23.374;2023-03-16T06:08:55;94094.66;;;3.64;98.96
10462;BME280;5278;42.656;23.374;2023-03-16T06:11:22;94096.09;;;3.76;99.31
10462;BME280;5278;42.656;23.374;2023-03-16T06:13:50;94105.03;;;3.89;99.81
10462;BME280;5278;42.656;23.374;2023-03-16T06:16:19;94088.31;;;3.85;98.51
10462;BME280;5278;42.656;23.374;2023-03-16T06:18:46;94095.28;;;3.93;98.08
10462;BME280;5278;42.656;23.374;2023-03-16T06:21:14;94116.13;;;3.90;96.87
10462;BME280;5278;42.656;23.374;2023-03-16T06:23:42;94107.75;;;3.88;97.61
10462;BME280;5278;42.656;23.374;2023-03-16T06:26:09;94117.50;;;3.84;97.01
10462;BME280;5278;42.656;23.374;2023-03-16T06:28:36;94122.38;;;3.87;97.74
10462;BME280;5278;42.656;23.374;2023-03-16T06:31:02;94125.59;;;3.89;97.07
10462;BME280;5278;42.656;23.374;2023-03-16T06:33:31;94127.19;;;3.90;96.95
10462;BME280;5278;42.656;23.374;2023-03-16T06:35:58;94126.25;;;3.92;97.00
10462;BME280;5278;42.656;23.374;2023-03-16T06:38:26;94135.78;;;3.99;96.48
10462;BME280;5278;42.656;23.374;2023-03-16T06:40:53;94130.72;;;4.07;95.56
10462;BME280;5278;42.656;23.374;2023-03-16T06:43:22;94134.47;;;4.13;94.62
10462;BME280;5278;42.656;23.374;2023-03-16T06:45:49;94146.06;;;4.17;94.18
10462;BME280;5278;42.656;23.374;2023-03-16T06:48:15;94152.97;;;4.16;93.91
10462;BME280;5278;42.656;23.374;2023-03-16T06:50:45;94150.03;;;4.11;93.86
10462;BME280;5278;42.656;23.374;2023-03-16T06:53:12;94140.06;;;4.08;92.87
10462;BME280;5278;42.656;23.374;2023-03-16T06:55:39;94155.91;;;4.04;92.77
10462;BME280;5278;42.656;23.374;2023-03-16T06:58:06;94150.75;;;4.04;92.50
10462;BME280;5278;42.656;23.374;2023-03-16T07:00:33;94140.78;;;4.01;92.98
10462;BME280;5278;42.656;23.374;2023-03-16T07:03:01;94170.53;;;4.03;92.46
10462;BME280;5278;42.656;23.374;2023-03-16T07:05:27;94155.91;;;6.00;100.00
10462;BME280;5278;42.656;23.374;2023-03-16T07:07:57;94150.75;;;8.83;100.00
10462;BME280;5278;42.656;23.374;2023-03-16T07:10:24;94149.06;;;10.92;100.00
10462;BME280;5278;42.656;23.374;2023-03-16T07:12:51;94144.44;;;12.45;86.18
10462;BME280;5278;42.656;23.374;2023-03-16T07:15:19;94145.44;;;13.62;56.43
10462;BME280;5278;42.656;23.374;2023-03-16T07:17:46;94145.06;;;12.54;52.21
10462;BME280;5278;42.656;23.374;2023-03-16T07:20:13;94171.91;;;10.54;56.26
10462;BME280;5278;42.656;23.374;2023-03-16T07:22:40;94155.22;;;9.26;62.13
10462;BME280;5278;42.656;23.374;2023-03-16T07:25:09;94182.25;;;8.18;68.60
10462;BME280;5278;42.656;23.374;2023-03-16T07:27:38;94180.66;;;7.39;72.14
10462;BME280;5278;42.656;23.374;2023-03-16T07:30:06;94175.78;;;6.73;77.08
10462;BME280;5278;42.656;23.374;2023-03-16T07:32:36;94189.31;;;6.26;79.30
10462;BME280;5278;42.656;23.374;2023-03-16T07:35:03;94183.97;;;6.12;81.67
10462;BME280;5278;42.656;23.374;2023-03-16T07:37:30;94195.09;;;5.78;83.59
10462;BME280;5278;42.656;23.374;2023-03-16T07:39:58;94189.03;;;5.45;85.78
10462;BME280;5278;42.656;23.374;2023-03-16T07:42:27;94201.06;;;5.37;85.90
10462;BME280;5278;42.656;23.374;2023-03-16T07:44:54;94198.91;;;5.24;87.63
10462;BME280;5278;42.656;23.374;2023-03-16T07:47:21;94197.09;;;5.16;87.91
10462;BME280;5278;42.656;23.374;2023-03-16T07:49:49;94204.22;;;5.23;88.05
10462;BME280;5278;42.656;23.374;2023-03-16T07:52:16;94213.19;;;5.18;88.17
10462;BME280;5278;42.656;23.374;2023-03-16T07:54:44;94208.81;;;5.11;89.11
10462;BME280;5278;42.656;23.374;2023-03-16T07:57:13;94218.25;;;5.02;89.48
10462;BME280;5278;42.656;23.374;2023-03-16T07:59:41;94202.81;;;5.02;89.64
10462;BME280;5278;42.656;23.374;2023-03-16T08:02:10;94115.09;;;4.44;88.29
10462;BME280;5278;42.656;23.374;2023-03-16T08:04:37;94205.56;;;5.09;87.99
10462;BME280;5278;42.656;23.374;2023-03-16T08:07:06;94208.34;;;5.15;87.57
10462;BME280;5278;42.656;23.374;2023-03-16T08:09:35;94215.16;;;5.25;88.21
10462;BME280;5278;42.656;23.374;2023-03-16T08:12:04;94230.00;;;5.31;88.53
10462;BME280;5278;42.656;23.374;2023-03-16T08:14:32;94223.69;;;5.25;88.42
10462;BME280;5278;42.656;23.374;2023-03-16T08:17:02;94213.50;;;5.15;86.30
10462;BME280;5278;42.656;23.374;2023-03-16T08:19:31;94232.19;;;5.17;87.23
10462;BME280;5278;42.656;23.374;2023-03-16T08:21:58;94224.50;;;5.26;88.21
10462;BME280;5278;42.656;23.374;2023-03-16T08:24:25;94241.81;;;5.41;86.61
10462;BME280;5278;42.656;23.374;2023-03-16T08:26:54;94241.16;;;5.39;87.20
10462;BME280;5278;42.656;23.374;2023-03-16T08:29:21;94234.31;;;5.48;87.06
10462;BME280;5278;42.656;23.374;2023-03-16T08:31:48;94249.47;;;5.59;86.09
10462;BME280;5278;42.656;23.374;2023-03-16T08:34:16;94236.94;;;5.64;86.58
10462;BME280;5278;42.656;23.374;2023-03-16T08:36:44;94247.59;;;5.69;86.45
10462;BME280;5278;42.656;23.374;2023-03-16T08:39:12;94244.06;;;5.70;86.02
10462;BME280;5278;42.656;23.374;2023-03-16T08:41:41;94238.78;;;5.80;86.07
10462;BME280;5278;42.656;23.374;2023-03-16T08:44:10;94233.94;;;5.77;84.74
10462;BME280;5278;42.656;23.374;2023-03-16T08:46:37;94247.16;;;5.82;85.19
10462;BME280;5278;42.656;23.374;2023-03-16T08:49:05;94276.72;;;5.87;84.95
10462;BME280;5278;42.656;23.374;2023-03-16T08:51:34;94259.63;;;5.94;83.79
10462;BME280;5278;42.656;23.374;2023-03-16T08:54:01;94257.13;;;6.11;83.77
10462;BME280;5278;42.656;23.374;2023-03-16T08:56:28;94259.38;;;6.05;84.13
10462;BME280;5278;42.656;23.374;2023-03-16T08:58:56;94261.66;;;6.17;82.87
10462;BME280;5278;42.656;23.374;2023-03-16T09:01:24;94266.88;;;5.91;82.42
10462;BME280;5278;42.656;23.374;2023-03-16T09:03:53;94260.53;;;5.77;83.91
10462;BME280;5278;42.656;23.374;2023-03-16T09:06:25;94264.09;;;5.84;84.08
10462;BME280;5278;42.656;23.374;2023-03-16T09:08:54;94269.16;;;5.94;83.67
10462;BME280;5278;42.656;23.374;2023-03-16T09:11:21;94275.16;;;6.02;83.99
10462;BME280;5278;42.656;23.374;2023-03-16T09:13:55;94271.31;;;6.07;82.91
10462;BME280;5278;42.656;23.374;2023-03-16T09:16:23;94245.00;;;5.95;81.90
10462;BME280;5278;42.656;23.374;2023-03-16T09:18:50;94270.97;;;6.01;81.66
10462;BME280;5278;42.656;23.374;2023-03-16T09:21:18;94273.75;;;5.82;80.82
10462;BME280;5278;42.656;23.374;2023-03-16T09:23:46;94165.97;;;5.02;81.21
10462;BME280;5278;42.656;23.374;2023-03-16T09:26:15;94243.22;;;5.61;82.11
10462;BME280;5278;42.656;23.374;2023-03-16T09:28:42;94279.81;;;5.73;82.42
10462;BME280;5278;42.656;23.374;2023-03-16T09:31:15;94282.56;;;5.72;83.30
10462;BME280;5278;42.656;23.374;2023-03-16T09:33:42;94240.63;;;5.61;83.55
10462;BME280;5278;42.656;23.374;2023-03-16T09:36:09;94275.72;;;5.88;83.24
10462;BME280;5278;42.656;23.374;2023-03-16T09:38:37;94275.56;;;5.90;83.77
10462;BME280;5278;42.656;23.374;2023-03-16T09:41:08;94280.94;;;5.96;83.19
10462;BME280;5278;42.656;23.374;2023-03-16T09:43:50;94282.50;;;5.89;82.89
10462;BME280;5278;42.656;23.374;2023-03-16T09:46:27;94280.50;;;5.83;82.91
10462;BME280;5278;42.656;23.374;2023-03-16T09:48:58;94284.47;;;5.95;83.14
10462;BME280;5278;42.656;23.374;2023-03-16T09:51:35;94281.53;;;5.90;79.40
10462;BME280;5278;42.656;23.374;2023-03-16T09:54:09;94281.22;;;5.93;79.96
10462;BME280;5278;42.656;23.374;2023-03-16T09:56:41;94297.56;;;5.76;80.24
10462;BME280;5278;42.656;23.374;2023-03-16T09:59:12;94300.28;;;5.75;80.90
10462;BME280;5278;42.656;23.374;2023-03-16T10:01:48;94292.41;;;5.76;81.62
10462;BME280;5278;42.656;23.374;2023-03-16T10:04:29;94289.47;;;5.71;82.47
10462;BME280;5278;42.656;23.374;2023-03-16T10:07:03;94289.13;;;5.66;83.44
10462;BME280;5278;42.656;23.374;2023-03-16T10:09:42;94295.50;;;5.54;84.65
10462;BME280;5278;42.656;23.374;2023-03-16T10:12:12;94298.72;;;5.56;85.96
10462;BME280;5278;42.656;23.374;2023-03-16T10:14:46;94294.91;;;5.68;85.64
10462;BME280;5278;42.656;23.374;2023-03-16T10:17:18;94295.72;;;5.69;86.02
10462;BME280;5278;42.656;23.374;2023-03-16T10:19:50;94290.75;;;5.67;86.02
10462;BME280;5278;42.656;23.374;2023-03-16T10:22:21;94285.28;;;5.70;86.29
10462;BME280;5278;42.656;23.374;2023-03-16T10:25:00;94292.53;;;5.75;84.56
10462;BME280;5278;42.656;23.374;2023-03-16T10:27:29;94286.94;;;5.79;84.02
10462;BME280;5278;42.656;23.374;2023-03-16T10:29:58;94288.91;;;5.85;83.90
10462;BME280;5278;42.656;23.374;2023-03-16T10:32:30;94289.81;;;5.76;82.70
10462;BME280;5278;42.656;23.374;2023-03-16T10:35:02;94295.66;;;5.86;83.66
10462;BME280;5278;42.656;23.374;2023-03-16T10:37:32;94289.63;;;5.95;82.92
10462;BME280;5278;42.656;23.374;2023-03-16T10:39:59;94292.75;;;6.07;81.40
10462;BME280;5278;42.656;23.374;2023-03-16T10:42:26;94286.47;;;6.18;81.03
10462;BME280;5278;42.656;23.374;2023-03-16T10:44:58;94289.38;;;6.15;80.29
10462;BME280;5278;42.656;23.374;2023-03-16T10:47:29;94287.88;;;6.04;81.59
10462;BME280;5278;42.656;23.374;2023-03-16T10:49:57;94285.81;;;6.08;81.74
10462;BME280;5278;42.656;23.374;2023-03-16T10:52:32;94285.34;;;6.12;82.47
10462;BME280;5278;42.656;23.374;2023-03-16T10:55:08;94281.97;;;6.12;82.31
10462;BME280;5278;42.656;23.374;2023-03-16T10:57:41;94289.38;;;6.15;81.42
10462;BME280;5278;42.656;23.374;2023-03-16T11:00:15;94266.41;;;5.95;81.45
10462;BME280;5278;42.656;23.374;2023-03-16T11:02:46;94296.56;;;6.03;79.81
10462;BME280;5278;42.656;23.374;2023-03-16T11:05:24;94275.16;;;6.02;80.52
10462;BME280;5278;42.656;23.374;2023-03-16T11:07:58;94304.41;;;6.27;79.17
10462;BME280;5278;42.656;23.374;2023-03-16T11:10:29;94307.81;;;6.36;78.33
10462;BME280;5278;42.656;23.374;2023-03-16T11:13:08;94267.28;;;6.12;77.36
10462;BME280;5278;42.656;23.374;2023-03-16T11:15:44;94292.59;;;6.17;77.09
10462;BME280;5278;42.656;23.374;2023-03-16T11:18:28;94283.88;;;6.18;77.76
10462;BME280;5278;42.656;23.374;2023-03-16T11:20:57;94293.09;;;6.12;77.38
10462;BME280;5278;42.656;23.374;2023-03-16T11:23:31;94299.34;;;6.18;77.63
10462;BME280;5278;42.656;23.374;2023-03-16T11:26:01;94293.75;;;6.22;77.36
10462;BME280;5278;42.656;23.374;2023-03-16T11:28:35;94292.81;;;6.31;77.79
10462;BME280;5278;42.656;23.374;2023-03-16T11:31:12;94299.81;;;6.55;76.21
10462;BME280;5278;42.656;23.374;2023-03-16T11:33:42;94283.84;;;6.52;75.80
10462;BME280;5278;42.656;23.374;2023-03-16T11:36:20;94289.19;;;6.66;75.33
10462;BME280;5278;42.656;23.374;2023-03-16T11:39:01;94289.00;;;6.68;75.03
10462;BME280;5278;42.656;23.374;2023-03-16T11:41:39;94292.09;;;6.71;74.78
10462;BME280;5278;42.656;23.374;2023-03-16T11:44:15;94290.19;;;6.81;74.33
10462;BME280;5278;42.656;23.374;2023-03-16T11:46:50;94296.16;;;6.90;73.75
10462;BME280;5278;42.656;23.374;2023-03-16T11:49:32;94294.34;;;6.82;74.20
10462;BME280;5278;42.656;23.374;2023-03-16T11:52:06;94290.97;;;6.66;74.35
10462;BME280;5278;42.656;23.374;2023-03-16T11:54:47;94289.03;;;6.76;75.16
10462;BME280;5278;42.656;23.374;2023-03-16T11:57:27;94305.97;;;6.70;74.98
10462;BME280;5278;42.656;23.374;2023-03-16T12:00:28;94301.56;;;6.63;73.97
10462;BME280;5278;42.656;23.374;2023-03-16T12:03:19;94296.38;;;6.38;75.05
10462;BME280;5278;42.656;23.374;2023-03-16T12:05:57;94309.13;;;6.40;75.72
10462;BME280;5278;42.656;23.374;2023-03-16T12:11:24;94310.13;;;6.47;76.81
10462;BME280;5278;42.656;23.374;2023-03-16T12:14:05;94305.31;;;6.18;77.28
10462;BME280;5278;42.656;23.374;2023-03-16T12:16:40;94318.06;;;6.20;78.11
10462;BME280;5278;42.656;23.374;2023-03-16T12:19:15;94319.69;;;6.13;77.26
10462;BME280;5278;42.656;23.374;2023-03-16T12:21:58;94300.94;;;6.02;77.55
10462;BME280;5278;42.656;23.374;2023-03-16T12:24:30;94325.78;;;5.86;78.28
10462;BME280;5278;42.656;23.374;2023-03-16T12:27:16;94322.19;;;5.79;78.67
10462;BME280;5278;42.656;23.374;2023-03-16T12:30:02;94339.75;;;5.75;79.09
10462;BME280;5278;42.656;23.374;2023-03-16T12:32:41;94321.75;;;5.83;78.90
10462;BME280;5278;42.656;23.374;2023-03-16T12:35:26;94327.06;;;5.82;78.53
10462;BME280;5278;42.656;23.374;2023-03-16T12:38:14;94321.34;;;5.70;79.02
10462;BME280;5278;42.656;23.374;2023-03-16T12:40:47;94326.41;;;5.80;79.16
10462;BME280;5278;42.656;23.374;2023-03-16T12:43:37;94334.78;;;5.82;79.12
10462;BME280;5278;42.656;23.374;2023-03-16T12:46:10;94330.94;;;5.86;79.10
10462;BME280;5278;42.656;23.374;2023-03-16T12:48:42;94310.66;;;5.57;78.22
10462;BME280;5278;42.656;23.374;2023-03-16T12:51:12;94278.72;;;5.24;78.98
10462;BME280;5278;42.656;23.374;2023-03-16T12:53:43;94340.34;;;5.69;79.25
10462;BME280;5278;42.656;23.374;2023-03-16T12:56:12;94334.56;;;5.67;79.83
10462;BME280;5278;42.656;23.374;2023-03-16T12:58:46;94342.53;;;5.56;80.72
10462;BME280;5278;42.656;23.374;2023-03-16T13:01:15;94337.50;;;5.54;81.92
10462;BME280;5278;42.656;23.374;2023-03-16T13:03:48;94344.78;;;5.59;82.71
10462;BME280;5278;42.656;23.374;2023-03-16T13:06:20;94361.81;;;5.52;84.08
10462;BME280;5278;42.656;23.374;2023-03-16T13:08:52;94353.66;;;5.39;84.92
10462;BME280;5278;42.656;23.374;2023-03-16T13:11:21;94357.50;;;5.35;86.05
10462;BME280;5278;42.656;23.374;2023-03-16T13:14:03;94357.13;;;5.30;87.40
10462;BME280;5278;42.656;23.374;2023-03-16T13:16:34;94360.25;;;5.15;88.64
10462;BME280;5278;42.656;23.374;2023-03-16T13:19:20;94337.38;;;4.95;89.09
10462;BME280;5278;42.656;23.374;2023-03-16T13:22:00;94365.09;;;5.18;90.50
10462;BME280;5278;42.656;23.374;2023-03-16T13:24:35;94354.41;;;5.13;90.47
10462;BME280;5278;42.656;23.374;2023-03-16T13:27:14;94370.31;;;5.27;89.86